Terminal Aerodrome Forecast
Issued by NWS

Home | Current Version | Previous Version | Graphics & Text | Print | Product List | Glossary On
Versions: 1 2 3 4 5 6 7 8 9 10 11 12 13 14 15 16 17
000
FTUS43 KICT 012300
TAFCNU
TAF
KCNU 012320Z 0200/0224 11005KT P6SM VCTS BKN050CB
      TEMPO 0200/0204 VRB25G35KT 3SM TSRA BKN035CB
     FM020400 06005KT P6SM VCTS BKN040CB
     FM020700 06005KT P6SM SCT100
      TEMPO 0210/0213 4SM BR
     FM021600 15008KT P6SM SCT040=

USA.gov is the U.S. government's official web portal to all federal, state and local government web resources and services.